Time;durP1;ratioP1;P1;durP2;ratioP2;P2;SDS_P1;SDS_P2;PMS_P1;PMS_P2;Temp;Humidity;BMP_temperature;BMP_pressure;BME280_temperature;BME280_humidity;BME280_pressure;Samples;Min_cycle;Max_cycle;Signal;HPM_P1;HPM_P2
2023/05/12 00:03:58;;;;;;;;;;;;;;;9.92;84.68;101467.78;5012505;28;19920;-90
2023/05/12 00:06:23;;;;;;;;;;;;;;;9.92;84.62;101470.47;5012434;28;19921;-89
2023/05/12 00:08:58;;;;;;;;;;;;;;;9.72;84.58;101434.66;5012783;28;19929;-90
2023/05/12 00:11:34;;;;;;;;;;;;;;;9.96;84.53;101463.00;4996511;28;20456;-89
2023/05/12 00:17:05;;;;;;;;;;;;;;;9.92;84.70;101468.63;5025041;28;19941;-90
2023/05/12 00:19:31;;;;;;;;;;;;;;;9.89;84.99;101455.47;5001973;28;19933;-90
2023/05/12 00:21:58;;;;;;;;;;;;;;;9.88;84.82;101467.22;4963343;28;19925;-90
2023/05/12 00:24:31;;;;;;;;;;;;;;;9.86;84.91;101468.34;5027326;28;19918;-89
2023/05/12 00:27:03;;;;;;;;;;;;;;;9.88;84.45;101467.22;4990304;28;19960;-90
2023/05/12 00:29:29;;;;;;;;;;;;;;;9.85;84.66;101472.00;5001764;28;20472;-91
2023/05/12 00:31:56;;;;;;;;;;;;;;;9.71;85.13;101451.75;4978036;28;20082;-90
2023/05/12 00:34:21;;;;;;;;;;;;;;;9.81;84.86;101462.50;4993923;28;20044;-90
2023/05/12 00:39:50;;;;;;;;;;;;;;;9.81;84.65;101454.44;5009648;28;19948;-90
2023/05/12 00:42:15;;;;;;;;;;;;;;;9.84;84.87;101454.19;4991596;28;19996;-90
2023/05/12 00:44:41;;;;;;;;;;;;;;;9.83;84.71;101447.97;5007806;28;19921;-89
2023/05/12 00:47:09;;;;;;;;;;;;;;;9.82;84.83;101446.25;5032186;28;20024;-88
2023/05/12 00:49:41;;;;;;;;;;;;;;;9.75;85.06;101455.84;4980625;28;20289;-90
2023/05/12 00:52:14;;;;;;;;;;;;;;;9.81;84.74;101455.31;5012215;28;19924;-90
2023/05/12 00:54:40;;;;;;;;;;;;;;;9.82;84.88;101456.16;4993337;28;19922;-89
2023/05/12 00:57:06;;;;;;;;;;;;;;;9.82;84.63;101448.09;4993079;28;19932;-89
2023/05/12 00:59:35;;;;;;;;;;;;;;;9.82;84.89;101461.53;5009986;28;19991;-89
2023/05/12 01:02:26;;;;;;;;;;;;;;;9.80;84.61;101458.97;4999066;28;20657;-87
2023/05/12 01:04:59;;;;;;;;;;;;;;;9.76;84.71;101454.00;4998670;28;19933;-88
2023/05/12 01:07:36;;;;;;;;;;;;;;;9.79;84.53;101456.44;5012538;28;19918;-88
2023/05/12 01:10:01;;;;;;;;;;;;;;;9.80;84.22;101452.75;5027699;28;19937;-89
2023/05/12 01:12:38;;;;;;;;;;;;;;;9.78;84.16;101444.84;5012534;28;20091;-89
2023/05/12 01:15:18;;;;;;;;;;;;;;;9.76;84.17;101441.44;5002696;28;19918;-89
2023/05/12 01:17:46;;;;;;;;;;;;;;;9.73;84.29;101447.09;5007819;28;20515;-88
2023/05/12 01:20:11;;;;;;;;;;;;;;;9.67;84.77;101442.28;4994446;28;19935;-91
2023/05/12 01:22:41;;;;;;;;;;;;;;;9.64;84.96;101442.53;4989367;28;20000;-87
2023/05/12 01:25:10;;;;;;;;;;;;;;;9.63;85.32;101441.69;4992327;28;19922;-90
2023/05/12 01:27:38;;;;;;;;;;;;;;;9.58;85.52;101443.09;4985651;28;20123;-89
2023/05/12 01:30:04;;;;;;;;;;;;;;;9.56;85.86;101439.69;4993579;28;19924;-90
2023/05/12 01:35:32;;;;;;;;;;;;;;;9.50;85.95;101441.94;5007860;28;20364;-89
2023/05/12 01:37:58;;;;;;;;;;;;;;;9.56;85.93;101435.16;5001753;28;19918;-91
2023/05/12 01:40:23;;;;;;;;;;;;;;;9.52;86.13;101429.19;4984347;28;19930;-89
2023/05/12 01:42:50;;;;;;;;;;;;;;;9.58;86.08;101430.50;4998340;28;19926;-88
2023/05/12 01:45:16;;;;;;;;;;;;;;;9.57;85.87;101420.75;5013323;28;19965;-88
2023/05/12 01:47:42;;;;;;;;;;;;;;;9.59;86.09;101429.50;5010156;28;19917;-90
2023/05/12 01:50:08;;;;;;;;;;;;;;;9.57;86.00;101420.75;4993329;28;20400;-90
2023/05/12 01:52:38;;;;;;;;;;;;;;;9.61;86.04;101422.19;4991916;28;19921;-89
2023/05/12 01:55:08;;;;;;;;;;;;;;;9.57;85.86;101425.25;5002219;28;19937;-89
2023/05/12 01:57:36;;;;;;;;;;;;;;;9.57;85.80;101425.25;4988605;28;19917;-89
2023/05/12 02:00:05;;;;;;;;;;;;;;;9.57;85.66;101422.59;5009783;28;20294;-88
2023/05/12 02:02:32;;;;;;;;;;;;;;;9.56;85.60;101429.78;5007407;28;19961;-88
2023/05/12 02:04:58;;;;;;;;;;;;;;;9.54;85.95;101425.53;5009926;28;20016;-87
2023/05/12 02:07:30;;;;;;;;;;;;;;;9.58;85.62;101432.34;4984103;28;19921;-89
2023/05/12 02:09:55;;;;;;;;;;;;;;;9.62;85.47;101431.06;4990450;28;19925;-89
2023/05/12 02:12:22;;;;;;;;;;;;;;;9.54;85.78;101430.91;4986755;28;20417;-89
2023/05/12 02:15:18;;;;;;;;;;;;;;;9.58;85.71;101435.03;4990624;28;20001;-89
2023/05/12 02:17:46;;;;;;;;;;;;;;;9.49;85.99;101423.25;5006563;28;20037;-90
2023/05/12 02:20:11;;;;;;;;;;;;;;;9.52;85.89;101421.16;5017183;28;19935;-90
2023/05/12 02:22:39;;;;;;;;;;;;;;;9.51;86.39;101416.78;5012491;28;20339;-91
2023/05/12 02:25:05;;;;;;;;;;;;;;;9.51;86.19;101415.94;4990322;28;19944;-89
2023/05/12 02:27:33;;;;;;;;;;;;;;;9.46;86.37;101420.88;4987415;28;20016;-88
2023/05/12 02:29:59;;;;;;;;;;;;;;;9.45;86.46;101419.16;4992180;28;20363;-89
2023/05/12 02:32:26;;;;;;;;;;;;;;;9.50;86.28;101419.59;4994310;28;20023;-90
2023/05/12 02:34:55;;;;;;;;;;;;;;;9.46;86.46;101413.66;4992369;28;19921;-88
2023/05/12 02:40:25;;;;;;;;;;;;;;;9.43;86.71;101408.53;4999636;28;19992;-88
2023/05/12 02:42:51;;;;;;;;;;;;;;;9.42;86.77;101412.22;5010433;28;19924;-89
2023/05/12 02:45:17;;;;;;;;;;;;;;;9.43;86.77;101421.94;4994686;28;20329;-86
2023/05/12 02:47:42;;;;;;;;;;;;;;;9.45;86.63;101422.66;4989373;28;19956;-86
2023/05/12 02:50:15;;;;;;;;;;;;;;;9.44;86.56;101420.97;5004053;28;19941;-88
2023/05/12 02:52:40;;;;;;;;;;;;;;;9.45;86.20;101425.34;5003669;28;19944;-89
2023/05/12 02:55:08;;;;;;;;;;;;;;;9.45;86.06;101430.72;5008173;28;19961;-90
2023/05/12 02:57:46;;;;;;;;;;;;;;;9.49;85.71;101423.25;4999438;28;20395;-90
2023/05/12 03:00:15;;;;;;;;;;;;;;;9.50;85.65;101435.69;4992249;28;20294;-91
2023/05/12 03:02:41;;;;;;;;;;;;;;;9.49;85.22;101429.47;5009301;28;19936;-93
2023/05/12 03:05:10;;;;;;;;;;;;;;;9.50;85.21;101428.50;4991769;28;19922;-90
2023/05/12 03:07:36;;;;;;;;;;;;;;;9.60;84.62;101436.59;4992283;28;20415;-90
2023/05/12 03:10:02;;;;;;;;;;;;;;;9.59;84.51;101440.25;4992042;28;20007;-92
2023/05/12 03:12:30;;;;;;;;;;;;;;;9.64;83.90;101443.38;5009929;28;19964;-90
2023/05/12 03:14:57;;;;;;;;;;;;;;;9.67;83.55;101447.66;5009149;28;19918;-90
2023/05/12 03:17:22;;;;;;;;;;;;;;;9.68;83.36;101443.97;4991134;28;20022;-88
2023/05/12 03:19:47;;;;;;;;;;;;;;;9.70;83.21;101440.16;5010145;28;20366;-90
2023/05/12 03:22:13;;;;;;;;;;;;;;;9.67;82.88;101442.28;4984180;28;19926;-89
2023/05/12 03:24:53;;;;;;;;;;;;;;;9.77;82.60;101450.38;4991435;28;19925;-89
2023/05/12 03:27:23;;;;;;;;;;;;;;;9.76;82.63;101443.28;4992292;28;20366;-90
2023/05/12 03:29:49;;;;;;;;;;;;;;;9.81;82.02;101444.59;5009202;28;20010;-91
2023/05/12 03:32:15;;;;;;;;;;;;;;;9.87;81.45;101449.38;5009808;28;19929;-90
2023/05/12 03:35:11;;;;;;;;;;;;;;;9.93;81.01;101464.13;4977311;28;19918;-90
2023/05/12 03:37:50;;;;;;;;;;;;;;;9.94;80.88;101455.91;5009765;28;19918;-89
2023/05/12 03:40:17;;;;;;;;;;;;;;;10.00;80.12;101456.38;4994241;28;19918;-88
2023/05/12 03:42:45;;;;;;;;;;;;;;;10.07;79.84;101454.81;4993397;28;19972;-90
2023/05/12 03:45:11;;;;;;;;;;;;;;;10.08;79.75;101451.13;4990841;28;19940;-90
2023/05/12 03:47:39;;;;;;;;;;;;;;;10.19;79.32;101459.09;4992128;28;19925;-91
2023/05/12 03:50:05;;;;;;;;;;;;;;;10.24;78.82;101454.13;4977141;28;20362;-89
2023/05/12 03:52:30;;;;;;;;;;;;;;;10.31;78.49;101447.25;5010573;28;20330;-90
2023/05/12 03:55:02;;;;;;;;;;;;;;;10.33;78.13;101447.97;5011302;28;19922;-89
2023/05/12 03:57:28;;;;;;;;;;;;;;;10.44;77.47;101446.13;5010734;28;19921;-91
2023/05/12 03:59:55;;;;;;;;;;;;;;;10.48;77.60;101447.53;4994578;28;19929;-90
2023/05/12 04:02:25;;;;;;;;;;;;;;;10.57;76.89;101452.06;5012761;28;19918;-91
2023/05/12 04:04:50;;;;;;;;;;;;;;;10.66;76.46;101445.84;4998014;28;19960;-89
2023/05/12 04:07:38;;;;;;;;;;;;;;;10.71;76.17;101443.56;4977679;28;19921;-91
2023/05/12 04:10:07;;;;;;;;;;;;;;;10.75;75.84;101445.00;4995289;28;19929;-90
2023/05/12 04:12:32;;;;;;;;;;;;;;;10.88;74.91;101444.69;4995239;28;19995;-92
2023/05/12 04:15:08;;;;;;;;;;;;;;;10.97;75.35;101451.03;4981648;28;20266;-91
2023/05/12 04:20:38;;;;;;;;;;;;;;;11.12;73.87;101446.91;5023427;28;20020;-92
2023/05/12 04:23:05;;;;;;;;;;;;;;;11.26;73.24;101452.81;5013439;28;20081;-95
2023/05/12 04:25:31;;;;;;;;;;;;;;;11.43;72.41;101456.59;5001122;28;19953;-92
2023/05/12 04:28:03;;;;;;;;;;;;;;;11.48;72.13;101457.84;4979537;28;19993;-93
2023/05/12 04:30:37;;;;;;;;;;;;;;;11.62;71.84;101449.28;5016724;28;19933;-90
2023/05/12 04:33:06;;;;;;;;;;;;;;;11.74;70.76;101446.41;5022375;28;19944;-91
2023/05/12 04:35:33;;;;;;;;;;;;;;;11.86;70.64;101442.50;4961314;28;19932;-91
2023/05/12 04:38:00;;;;;;;;;;;;;;;11.99;70.07;101445.72;4987818;28;19925;-92
2023/05/12 04:40:31;;;;;;;;;;;;;;;12.11;69.72;101438.28;4979534;28;19996;-92
2023/05/12 04:43:00;;;;;;;;;;;;;;;12.32;68.78;101439.84;5014086;28;19917;-93
2023/05/12 04:45:36;;;;;;;;;;;;;;;12.46;66.34;101440.16;4989121;28;20367;-93
2023/05/12 04:48:14;;;;;;;;;;;;;;;12.57;65.78;101432.81;4982799;28;20006;-92
2023/05/12 04:50:43;;;;;;;;;;;;;;;12.71;65.96;101437.66;5003996;28;19921;-91
2023/05/12 04:56:02;;;;;;;;;;;;;;;12.92;64.83;101431.91;5013703;28;20012;-91
2023/05/12 04:58:33;;;;;;;;;;;;;;;13.12;63.84;101434.44;4986113;28;19926;-91
2023/05/12 05:00:58;;;;;;;;;;;;;;;13.10;63.17;101434.56;5008359;28;19940;-88
2023/05/12 05:03:24;;;;;;;;;;;;;;;13.20;63.00;101440.72;5010798;28;20378;-89
2023/05/12 05:05:49;;;;;;;;;;;;;;;13.30;61.97;101436.09;4992508;28;20007;-91
2023/05/12 05:08:19;;;;;;;;;;;;;;;13.59;60.86;101445.69;5010368;28;19933;-93
2023/05/12 05:11:14;;;;;;;;;;;;;;;13.54;58.78;101439.09;5011762;28;20020;-90
2023/05/12 05:13:43;;;;;;;;;;;;;;;13.69;57.65;101445.56;4948615;29;19927;-88
2023/05/12 05:16:08;;;;;;;;;;;;;;;13.82;56.73;101437.84;4925811;29;20426;-87
2023/05/12 05:18:34;;;;;;;;;;;;;;;13.83;56.68;101442.25;4977541;28;19944;-90
2023/05/12 05:20:59;;;;;;;;;;;;;;;14.01;56.08;101450.25;4992128;28;19932;-89
2023/05/12 05:23:26;;;;;;;;;;;;;;;14.26;55.54;101447.63;5003933;28;20016;-85
2023/05/12 05:25:52;;;;;;;;;;;;;;;14.51;53.65;101452.03;4987459;28;19971;-86
2023/05/12 05:28:19;;;;;;;;;;;;;;;14.56;53.14;101459.69;4972705;28;20012;-92
2023/05/12 05:30:48;;;;;;;;;;;;;;;14.64;52.13;101456.16;5007421;28;19921;-90
2023/05/12 05:33:14;;;;;;;;;;;;;;;14.82;51.71;101446.00;5005428;28;19918;-89
2023/05/12 05:35:39;;;;;;;;;;;;;;;14.78;51.61;101447.38;5009223;28;19927;-85
2023/05/12 05:38:07;;;;;;;;;;;;;;;15.12;51.34;101454.44;5007523;28;19922;-88
2023/05/12 05:40:35;;;;;;;;;;;;;;;15.34;50.27;101448.31;4988570;28;20408;-83
2023/05/12 05:43:00;;;;;;;;;;;;;;;15.56;47.70;101457.53;5007986;28;20044;-87
2023/05/12 05:45:25;;;;;;;;;;;;;;;15.64;45.88;101464.81;4972371;28;19956;-86
2023/05/12 05:47:52;;;;;;;;;;;;;;;15.66;45.06;101451.91;4978058;28;20035;-81
2023/05/12 05:50:17;;;;;;;;;;;;;;;15.98;44.75;101469.94;5009365;28;19917;-86
2023/05/12 05:52:42;;;;;;;;;;;;;;;15.87;45.96;101466.78;4990455;28;19922;-85
2023/05/12 05:55:08;;;;;;;;;;;;;;;15.90;44.89;101456.44;4972141;28;19926;-86
2023/05/12 05:57:33;;;;;;;;;;;;;;;15.75;44.23;101469.88;5008281;28;20010;-86
2023/05/12 05:59:58;;;;;;;;;;;;;;;15.81;44.65;101476.47;4991777;28;19976;-86
2023/05/12 06:02:24;;;;;;;;;;;;;;;16.06;45.60;101473.66;5003988;28;19922;-83
2023/05/12 06:04:51;;;;;;;;;;;;;;;15.95;44.85;101467.59;5007904;28;19921;-84
2023/05/12 06:07:17;;;;;;;;;;;;;;;16.04;45.93;101480.09;5001458;28;20027;-86
2023/05/12 06:09:43;;;;;;;;;;;;;;;16.03;45.84;101464.84;4975222;28;19921;-85
2023/05/12 06:12:08;;;;;;;;;;;;;;;16.11;46.22;101469.41;4995998;28;19921;-84
2023/05/12 06:14:34;;;;;;;;;;;;;;;16.10;44.96;101475.00;5009867;28;19921;-84
2023/05/12 06:16:59;;;;;;;;;;;;;;;16.14;44.56;101474.44;5008698;28;20039;-84
2023/05/12 06:19:25;;;;;;;;;;;;;;;16.13;44.93;101475.50;5009327;28;19917;-84
2023/05/12 06:21:52;;;;;;;;;;;;;;;15.86;43.62;101474.06;4990761;28;19983;-85
2023/05/12 06:24:19;;;;;;;;;;;;;;;16.06;44.48;101474.50;4996525;28;19941;-90
2023/05/12 06:26:45;;;;;;;;;;;;;;;16.24;44.80;101472.34;5007016;28;19931;-85
2023/05/12 06:29:11;;;;;;;;;;;;;;;16.57;44.60;101474.84;4972759;28;19932;-83
2023/05/12 06:31:36;;;;;;;;;;;;;;;16.70;43.52;101474.25;4988452;28;20302;-84
2023/05/12 06:34:03;;;;;;;;;;;;;;;16.50;44.45;101482.03;4988153;28;20381;-83
2023/05/12 06:36:29;;;;;;;;;;;;;;;16.59;44.26;101466.53;5008784;28;19948;-85
2023/05/12 06:38:55;;;;;;;;;;;;;;;16.78;44.47;101468.75;4988294;28;19922;-86
2023/05/12 06:41:24;;;;;;;;;;;;;;;16.96;44.45;101476.63;4982893;28;19921;-90
2023/05/12 06:43:49;;;;;;;;;;;;;;;17.24;43.35;101467.88;5027485;28;19980;-83
2023/05/12 06:46:15;;;;;;;;;;;;;;;17.23;42.42;101477.91;4985471;28;19926;-85
2023/05/12 06:48:45;;;;;;;;;;;;;;;17.28;43.07;101470.03;4995903;28;19921;-87
2023/05/12 06:51:10;;;;;;;;;;;;;;;17.40;41.03;101469.59;5013459;28;19922;-81
2023/05/12 06:53:38;;;;;;;;;;;;;;;17.32;40.75;101465.06;4985713;28;19928;-83
2023/05/12 06:56:04;;;;;;;;;;;;;;;17.49;41.20;101466.59;5005063;28;19925;-84
2023/05/12 06:58:29;;;;;;;;;;;;;;;17.72;42.03;101473.78;4990584;28;19929;-84
2023/05/12 07:00:56;;;;;;;;;;;;;;;17.70;42.48;101478.59;5009530;28;20708;-85
2023/05/12 07:03:21;;;;;;;;;;;;;;;17.80;42.61;101471.00;5008562;28;20005;-85
2023/05/12 07:05:47;;;;;;;;;;;;;;;17.84;41.93;101480.50;4991085;28;20366;-86
2023/05/12 07:08:13;;;;;;;;;;;;;;;18.14;41.73;101475.00;4991242;28;19918;-84
2023/05/12 07:10:39;;;;;;;;;;;;;;;17.96;41.50;101486.31;5009319;28;20020;-85
2023/05/12 07:13:06;;;;;;;;;;;;;;;17.75;42.87;101476.16;4991058;28;20353;-86
2023/05/12 07:15:31;;;;;;;;;;;;;;;17.73;42.33;101479.06;5009215;28;19925;-84
2023/05/12 07:17:57;;;;;;;;;;;;;;;17.78;41.69;101486.66;4990795;28;19937;-84
2023/05/12 07:20:23;;;;;;;;;;;;;;;17.99;41.14;101488.63;4991033;28;19917;-85
2023/05/12 07:22:50;;;;;;;;;;;;;;;17.84;40.08;101491.38;4990987;28;19922;-85
2023/05/12 07:25:15;;;;;;;;;;;;;;;18.01;41.11;101489.28;4995068;28;19924;-83
2023/05/12 07:27:42;;;;;;;;;;;;;;;18.10;40.42;101484.59;4990866;28;20315;-87
2023/05/12 07:30:08;;;;;;;;;;;;;;;18.36;40.12;101489.50;4991953;28;20008;-85
2023/05/12 07:32:34;;;;;;;;;;;;;;;18.45;41.80;101482.03;4990855;28;19928;-85
2023/05/12 07:34:59;;;;;;;;;;;;;;;18.77;40.17;101492.47;5009882;28;20009;-84
2023/05/12 07:37:27;;;;;;;;;;;;;;;18.64;38.91;101484.16;5012352;28;19992;-85
2023/05/12 07:39:53;;;;;;;;;;;;;;;18.43;40.03;101495.88;5011791;28;19924;-85
2023/05/12 07:42:21;;;;;;;;;;;;;;;19.18;39.86;101499.13;4994256;28;19921;-86
2023/05/12 07:44:48;;;;;;;;;;;;;;;19.10;36.47;101496.53;5008642;28;19997;-85
2023/05/12 07:47:13;;;;;;;;;;;;;;;18.87;36.87;101488.56;5011159;28;19935;-86
2023/05/12 07:49:39;;;;;;;;;;;;;;;19.11;37.78;101501.78;5012422;28;20041;-86
2023/05/12 07:52:04;;;;;;;;;;;;;;;18.68;38.75;101496.34;4994238;28;19917;-85
2023/05/12 07:54:29;;;;;;;;;;;;;;;18.97;37.49;101513.63;4994582;28;19921;-83
2023/05/12 07:56:56;;;;;;;;;;;;;;;19.01;36.87;101504.03;4993997;28;19925;-85
2023/05/12 07:59:21;;;;;;;;;;;;;;;19.05;37.46;101494.38;4994234;28;19921;-85
2023/05/12 08:01:46;;;;;;;;;;;;;;;19.03;37.54;101499.19;4995026;28;19944;-86
2023/05/12 08:04:13;;;;;;;;;;;;;;;19.36;35.91;101501.34;4993611;28;19968;-86
2023/05/12 08:06:39;;;;;;;;;;;;;;;19.51;34.90;101513.00;4994877;28;20031;-85
2023/05/12 08:09:04;;;;;;;;;;;;;;;19.55;35.08;101508.84;5011514;28;19957;-84
2023/05/12 08:11:29;;;;;;;;;;;;;;;19.66;35.41;101512.88;4993636;28;20008;-86
2023/05/12 08:13:54;;;;;;;;;;;;;;;20.25;34.94;101511.50;4981942;28;20393;-86
2023/05/12 08:16:21;;;;;;;;;;;;;;;20.99;34.43;101507.09;5013302;28;19917;-84
2023/05/12 08:18:49;;;;;;;;;;;;;;;21.02;32.80;101512.13;5013734;28;20099;-84
2023/05/12 08:21:14;;;;;;;;;;;;;;;21.13;33.43;101507.94;4993863;28;19985;-86
2023/05/12 08:23:41;;;;;;;;;;;;;;;21.52;32.68;101507.09;5011055;28;20373;-86
2023/05/12 08:26:06;;;;;;;;;;;;;;;21.61;32.17;101510.44;4981724;28;19964;-87
2023/05/12 08:28:31;;;;;;;;;;;;;;;21.69;30.66;101508.31;5012350;28;19929;-84
2023/05/12 08:30:57;;;;;;;;;;;;;;;22.42;31.17;101512.72;5011653;28;19917;-85
2023/05/12 08:33:22;;;;;;;;;;;;;;;22.93;32.03;101519.97;5010767;28;19921;-84
2023/05/12 08:35:48;;;;;;;;;;;;;;;23.45;31.35;101516.19;5011766;28;20433;-85
2023/05/12 08:38:13;;;;;;;;;;;;;;;24.08;30.86;101520.63;5011757;28;19925;-86
2023/05/12 08:40:51;;;;;;;;;;;;;;;24.21;32.42;101520.47;4996345;28;19917;-84
2023/05/12 08:43:28;;;;;;;;;;;;;;;24.77;32.56;101521.19;5011401;28;19921;-86
2023/05/12 08:45:57;;;;;;;;;;;;;;;24.55;33.20;101535.44;4993677;28;19979;-85
2023/05/12 08:48:26;;;;;;;;;;;;;;;24.62;31.95;101527.13;5009730;28;19928;-86
2023/05/12 08:50:52;;;;;;;;;;;;;;;25.62;31.26;101525.50;4993755;28;20315;-85
2023/05/12 08:53:20;;;;;;;;;;;;;;;26.07;30.24;101516.59;5010079;28;19968;-85
2023/05/12 08:55:46;;;;;;;;;;;;;;;24.66;32.11;101508.25;4993020;28;19925;-85
2023/05/12 08:58:11;;;;;;;;;;;;;;;25.64;31.94;101526.94;4993033;28;19928;-87
2023/05/12 09:00:36;;;;;;;;;;;;;;;27.13;30.45;101525.22;4976931;28;20067;-86
2023/05/12 09:03:06;;;;;;;;;;;;;;;28.18;28.64;101522.63;5011118;28;19918;-85
2023/05/12 09:05:31;;;;;;;;;;;;;;;28.87;27.30;101523.09;4993495;28;19923;-86
2023/05/12 09:07:59;;;;;;;;;;;;;;;27.54;26.28;101528.66;4992942;28;20016;-85
2023/05/12 09:10:25;;;;;;;;;;;;;;;27.21;28.02;101520.44;5011432;28;19918;-85
2023/05/12 09:12:51;;;;;;;;;;;;;;;28.07;28.06;101518.06;5010750;28;19975;-85
2023/05/12 09:15:26;;;;;;;;;;;;;;;28.39;28.30;101514.56;5011570;28;19924;-86
2023/05/12 09:17:52;;;;;;;;;;;;;;;28.34;26.35;101522.81;4993074;28;19929;-85
2023/05/12 09:20:20;;;;;;;;;;;;;;;29.25;26.44;101519.31;5011056;28;19917;-86
2023/05/12 09:22:45;;;;;;;;;;;;;;;29.92;25.14;101512.25;4978104;28;20017;-85
2023/05/12 09:25:16;;;;;;;;;;;;;;;30.41;25.04;101508.28;4993812;28;20107;-87
2023/05/12 09:27:41;;;;;;;;;;;;;;;30.81;24.51;101503.91;4993202;28;20009;-88
2023/05/12 09:30:07;;;;;;;;;;;;;;;30.38;24.26;101503.31;4993884;28;19939;-86
2023/05/12 09:32:34;;;;;;;;;;;;;;;29.01;24.92;101504.97;4992134;28;20424;-86
2023/05/12 09:35:10;;;;;;;;;;;;;;;29.50;25.23;101507.59;4992735;28;19924;-86
2023/05/12 09:37:35;;;;;;;;;;;;;;;26.57;29.67;101504.09;4992436;28;20016;-84
2023/05/12 09:40:07;;;;;;;;;;;;;;;27.31;29.02;101504.84;5010612;28;19921;-86
2023/05/12 09:42:33;;;;;;;;;;;;;;;27.49;27.80;101508.44;5010739;28;19932;-86
2023/05/12 09:45:03;;;;;;;;;;;;;;;25.77;27.37;101506.56;5009759;28;19917;-86
2023/05/12 09:47:39;;;;;;;;;;;;;;;24.43;30.56;101507.88;4976050;28;19959;-86
2023/05/12 09:50:06;;;;;;;;;;;;;;;23.72;31.26;101514.88;4985316;28;20024;-85
2023/05/12 09:52:37;;;;;;;;;;;;;;;23.02;32.92;101511.53;4992343;28;19926;-86
2023/05/12 09:55:03;;;;;;;;;;;;;;;22.65;34.88;101501.19;5013715;28;20112;-85
2023/05/12 09:57:28;;;;;;;;;;;;;;;22.08;34.38;101497.47;4977058;28;19957;-83
2023/05/12 09:59:54;;;;;;;;;;;;;;;22.69;33.55;101502.44;4978139;28;19928;-87
2023/05/12 10:02:22;;;;;;;;;;;;;;;21.98;32.96;101516.25;4994309;28;20374;-86
2023/05/12 10:04:51;;;;;;;;;;;;;;;21.22;34.13;101501.22;4976000;28;20103;-87
2023/05/12 10:07:19;;;;;;;;;;;;;;;21.24;35.43;101502.69;4975560;28;19980;-85
2023/05/12 10:09:47;;;;;;;;;;;;;;;21.43;35.71;101502.91;5009252;28;19957;-86
2023/05/12 10:12:12;;;;;;;;;;;;;;;20.98;35.20;101506.25;5009873;28;19917;-86
2023/05/12 10:14:37;;;;;;;;;;;;;;;20.34;35.82;101504.00;4991978;28;19939;-85
2023/05/12 10:17:04;;;;;;;;;;;;;;;20.00;36.92;101520.25;4991938;28;20000;-85
2023/05/12 10:19:32;;;;;;;;;;;;;;;19.59;37.95;101518.28;4992027;28;19917;-85
2023/05/12 10:21:59;;;;;;;;;;;;;;;19.81;37.63;101516.38;5008964;28;19918;-85
2023/05/12 10:24:25;;;;;;;;;;;;;;;19.73;36.62;101507.50;4984886;28;19921;-86
2023/05/12 10:26:53;;;;;;;;;;;;;;;18.98;37.80;101507.13;5018468;28;19975;-86
2023/05/12 10:29:18;;;;;;;;;;;;;;;19.25;37.08;101516.38;5016949;28;20345;-84
2023/05/12 10:31:43;;;;;;;;;;;;;;;19.54;36.74;101512.59;4993515;28;19971;-85
2023/05/12 10:34:13;;;;;;;;;;;;;;;19.35;36.97;101510.56;5008933;28;20012;-85
2023/05/12 10:37:08;;;;;;;;;;;;;;;19.38;36.79;101499.25;4991158;28;19917;-85
2023/05/12 10:39:33;;;;;;;;;;;;;;;19.15;36.72;101516.72;5008013;28;19921;-86
2023/05/12 10:42:05;;;;;;;;;;;;;;;19.50;36.09;101505.88;5008599;28;20287;-86
2023/05/12 10:44:30;;;;;;;;;;;;;;;19.76;34.77;101502.50;5007974;28;19932;-85
2023/05/12 10:46:58;;;;;;;;;;;;;;;19.96;34.75;101513.50;4975153;28;19922;-85
2023/05/12 10:49:53;;;;;;;;;;;;;;;20.12;33.50;101508.75;5008844;28;19980;-84
2023/05/12 10:52:19;;;;;;;;;;;;;;;19.88;33.63;101513.69;5007909;28;20240;-85
2023/05/12 10:54:45;;;;;;;;;;;;;;;20.02;33.84;101506.41;4993057;28;19921;-86
2023/05/12 10:57:15;;;;;;;;;;;;;;;20.06;33.91;101525.94;4976580;28;20402;-85
2023/05/12 10:59:51;;;;;;;;;;;;;;;20.00;33.20;101514.78;5009865;28;19936;-85
2023/05/12 11:02:17;;;;;;;;;;;;;;;19.34;33.40;101511.63;5008336;28;20076;-85
2023/05/12 11:04:52;;;;;;;;;;;;;;;18.84;33.65;101499.88;5007971;28;20020;-86
2023/05/12 11:07:21;;;;;;;;;;;;;;;18.56;33.92;101503.31;4982517;28;19925;-84
2023/05/12 11:09:47;;;;;;;;;;;;;;;18.01;32.84;101502.91;4992638;28;19918;-84
2023/05/12 11:12:12;;;;;;;;;;;;;;;17.97;33.99;101503.47;5012209;28;19924;-85
2023/05/12 11:14:38;;;;;;;;;;;;;;;18.14;33.84;101502.22;4992627;28;20349;-85
2023/05/12 11:17:06;;;;;;;;;;;;;;;18.02;33.57;101514.63;4979549;28;19922;-84
2023/05/12 11:19:32;;;;;;;;;;;;;;;17.76;34.06;101510.47;4994452;28;19925;-84
2023/05/12 11:22:04;;;;;;;;;;;;;;;17.72;34.89;101514.59;4995780;28;19920;-85
2023/05/12 11:24:29;;;;;;;;;;;;;;;17.91;34.85;101516.78;5012189;28;20306;-85
2023/05/12 11:26:55;;;;;;;;;;;;;;;17.83;35.06;101508.72;5012638;28;19914;-84
2023/05/12 11:29:20;;;;;;;;;;;;;;;18.33;35.08;101511.66;4989083;28;19972;-86
2023/05/12 11:31:47;;;;;;;;;;;;;;;18.77;34.51;101507.97;4994763;28;19945;-86
2023/05/12 11:34:12;;;;;;;;;;;;;;;19.10;32.87;101523.78;5012322;28;19980;-87
2023/05/12 11:36:41;;;;;;;;;;;;;;;19.43;32.03;101513.13;4994721;28;20298;-85
2023/05/12 11:39:07;;;;;;;;;;;;;;;19.22;32.29;101515.91;5012164;28;19925;-83
2023/05/12 11:41:33;;;;;;;;;;;;;;;19.47;32.22;101513.59;4959130;28;19922;-85
2023/05/12 11:44:00;;;;;;;;;;;;;;;19.37;31.10;101519.41;4989909;28;19929;-85
2023/05/12 11:46:28;;;;;;;;;;;;;;;19.07;31.34;101507.84;5012075;28;19917;-85
2023/05/12 11:48:58;;;;;;;;;;;;;;;19.03;32.12;101501.91;5012105;28;19921;-85
2023/05/12 11:51:24;;;;;;;;;;;;;;;19.53;32.35;101518.25;4994094;28;20274;-86
2023/05/12 11:53:50;;;;;;;;;;;;;;;19.63;32.57;101513.28;5012355;28;19929;-84
2023/05/12 11:56:22;;;;;;;;;;;;;;;19.72;31.28;101505.81;5011833;28;19924;-85
2023/05/12 11:58:55;;;;;;;;;;;;;;;20.22;31.80;101511.94;5013797;28;19941;-87
2023/05/12 12:01:21;;;;;;;;;;;;;;;20.06;29.85;101515.00;4996355;28;20095;-89
2023/05/12 12:03:48;;;;;;;;;;;;;;;19.98;29.58;101500.50;5007810;28;19925;-87
2023/05/12 12:06:13;;;;;;;;;;;;;;;19.73;30.92;101507.50;5013972;28;20357;-87
2023/05/12 12:08:48;;;;;;;;;;;;;;;20.24;30.90;101509.84;5018836;28;20012;-89
2023/05/12 12:11:13;;;;;;;;;;;;;;;19.93;30.21;101504.88;4980982;28;20334;-87
2023/05/12 12:13:39;;;;;;;;;;;;;;;20.10;30.35;101499.91;5011982;28;19929;-88
2023/05/12 12:16:06;;;;;;;;;;;;;;;20.51;29.80;101501.72;4998793;28;20004;-86
2023/05/12 12:18:31;;;;;;;;;;;;;;;20.18;29.33;101511.50;5017898;28;19929;-89
2023/05/12 12:20:56;;;;;;;;;;;;;;;20.50;29.69;101508.25;4982573;28;20361;-86
2023/05/12 12:23:22;;;;;;;;;;;;;;;20.67;29.69;101498.63;4999527;28;19922;-86
2023/05/12 12:25:47;;;;;;;;;;;;;;;21.27;29.13;101491.31;4988170;28;19917;-88
2023/05/12 12:28:13;;;;;;;;;;;;;;;21.17;29.09;101488.19;4994239;28;19993;-89
2023/05/12 12:30:40;;;;;;;;;;;;;;;21.06;28.31;101492.38;5010293;28;19944;-88
2023/05/12 12:33:07;;;;;;;;;;;;;;;20.82;28.84;101491.09;5021811;28;19960;-89
2023/05/12 12:35:32;;;;;;;;;;;;;;;20.81;29.41;101494.91;5002967;28;20024;-88
2023/05/12 12:37:58;;;;;;;;;;;;;;;20.54;28.71;101515.00;4990650;28;19926;-87
2023/05/12 12:40:25;;;;;;;;;;;;;;;20.41;28.79;101497.50;5005556;28;19936;-88
2023/05/12 12:42:50;;;;;;;;;;;;;;;20.47;29.79;101497.75;4993797;28;19929;-88
2023/05/12 12:45:16;;;;;;;;;;;;;;;20.26;29.14;101501.47;4990077;28;19932;-88
2023/05/12 12:47:42;;;;;;;;;;;;;;;20.50;29.69;101508.25;4994981;28;19925;-89
2023/05/12 12:50:08;;;;;;;;;;;;;;;20.74;28.25;101499.50;4972749;28;19922;-88
2023/05/12 12:52:34;;;;;;;;;;;;;;;20.55;26.88;101500.28;5010279;28;19948;-88
2023/05/12 12:55:00;;;;;;;;;;;;;;;19.88;27.81;101505.50;4975420;28;19929;-87
2023/05/12 12:57:25;;;;;;;;;;;;;;;20.14;28.79;101490.28;5000099;28;20092;-87
2023/05/12 12:59:52;;;;;;;;;;;;;;;20.20;28.32;101492.19;4986464;28;19922;-90
2023/05/12 13:02:20;;;;;;;;;;;;;;;20.05;28.40;101494.25;5013432;28;20042;-92
2023/05/12 13:04:46;;;;;;;;;;;;;;;19.76;27.99;101496.16;5011489;28;19917;-90